sensor_id;sensor_type;location;lat;lon;timestamp;pressure;altitude;pressure_sealevel;temperature;humidity
70468;BME280;57934;51.532;7.684;2022-07-18T00:01:55;101198.34;;;17.42;51.07
70468;BME280;57934;51.532;7.684;2022-07-18T00:04:22;101199.81;;;17.38;51.48
70468;BME280;57934;51.532;7.684;2022-07-18T00:06:47;101203.91;;;17.34;51.76
70468;BME280;57934;51.532;7.684;2022-07-18T00:09:13;101208.84;;;17.30;52.21
70468;BME280;57934;51.532;7.684;2022-07-18T00:11:39;101213.59;;;17.28;52.21
70468;BME280;57934;51.532;7.684;2022-07-18T00:14:05;101218.69;;;17.30;51.16
70468;BME280;57934;51.532;7.684;2022-07-18T00:16:31;101217.84;;;17.36;51.05
70468;BME280;57934;51.532;7.684;2022-07-18T00:18:58;101217.69;;;17.31;51.11
70468;BME280;57934;51.532;7.684;2022-07-18T00:21:25;101209.31;;;17.27;51.91
70468;BME280;57934;51.532;7.684;2022-07-18T00:23:51;101211.19;;;17.20;52.69
70468;BME280;57934;51.532;7.684;2022-07-18T00:26:17;101209.16;;;17.15;52.88
70468;BME280;57934;51.532;7.684;2022-07-18T00:28:43;101209.56;;;17.12;53.47
70468;BME280;57934;51.532;7.684;2022-07-18T00:31:09;101205.31;;;17.05;53.23
70468;BME280;57934;51.532;7.684;2022-07-18T00:33:35;101199.44;;;16.96;53.67
70468;BME280;57934;51.532;7.684;2022-07-18T00:36:01;101201.06;;;16.97;54.13
70468;BME280;57934;51.532;7.684;2022-07-18T00:38:28;101195.94;;;16.96;53.88
70468;BME280;57934;51.532;7.684;2022-07-18T00:40:53;101195.34;;;16.93;54.47
70468;BME280;57934;51.532;7.684;2022-07-18T00:43:19;101194.72;;;16.91;54.69
70468;BME280;57934;51.532;7.684;2022-07-18T00:45:48;101189.84;;;16.88;54.86
70468;BME280;57934;51.532;7.684;2022-07-18T00:48:15;101189.44;;;16.85;54.70
70468;BME280;57934;51.532;7.684;2022-07-18T00:50:42;101185.75;;;16.86;54.70
70468;BME280;57934;51.532;7.684;2022-07-18T00:53:09;101175.31;;;16.78;54.50
70468;BME280;57934;51.532;7.684;2022-07-18T00:55:41;101181.69;;;16.70;54.38
70468;BME280;57934;51.532;7.684;2022-07-18T00:58:08;101178.03;;;16.64;54.51
70468;BME280;57934;51.532;7.684;2022-07-18T01:00:35;101176.38;;;16.63;54.42
70468;BME280;57934;51.532;7.684;2022-07-18T01:03:20;101183.34;;;16.64;54.77
70468;BME280;57934;51.532;7.684;2022-07-18T01:05:46;101177.38;;;16.69;54.15
70468;BME280;57934;51.532;7.684;2022-07-18T01:08:12;101174.31;;;16.72;53.21
70468;BME280;57934;51.532;7.684;2022-07-18T01:10:38;101174.72;;;16.69;54.37
70468;BME280;57934;51.532;7.684;2022-07-18T01:13:04;101176.38;;;16.63;55.28
70468;BME280;57934;51.532;7.684;2022-07-18T01:15:30;101182.34;;;16.59;55.14
70468;BME280;57934;51.532;7.684;2022-07-18T01:17:56;101178.88;;;16.58;54.56
70468;BME280;57934;51.532;7.684;2022-07-18T01:20:29;101177.25;;;16.57;54.59
70468;BME280;57934;51.532;7.684;2022-07-18T01:22:56;101181.94;;;16.55;55.35
70468;BME280;57934;51.532;7.684;2022-07-18T01:25:23;101179.09;;;16.50;55.52
70468;BME280;57934;51.532;7.684;2022-07-18T01:27:49;101180.53;;;16.46;56.15
70468;BME280;57934;51.532;7.684;2022-07-18T01:30:15;101178.91;;;16.45;56.20
70468;BME280;57934;51.532;7.684;2022-07-18T01:32:42;101173.81;;;16.43;56.38
70468;BME280;57934;51.532;7.684;2022-07-18T01:35:09;101184.63;;;16.42;56.50
70468;BME280;57934;51.532;7.684;2022-07-18T01:37:35;101179.72;;;16.39;56.66
70468;BME280;57934;51.532;7.684;2022-07-18T01:40:01;101188.34;;;16.34;56.94
70468;BME280;57934;51.532;7.684;2022-07-18T01:42:27;101183.84;;;16.35;56.82
70468;BME280;57934;51.532;7.684;2022-07-18T01:44:53;101177.31;;;16.31;56.91
70468;BME280;57934;51.532;7.684;2022-07-18T01:47:19;101180.38;;;16.28;56.96
70468;BME280;57934;51.532;7.684;2022-07-18T01:49:45;101173.44;;;16.27;57.15
70468;BME280;57934;51.532;7.684;2022-07-18T01:52:11;101176.50;;;16.23;57.27
70468;BME280;57934;51.532;7.684;2022-07-18T01:54:37;101184.09;;;16.20;57.38
70468;BME280;57934;51.532;7.684;2022-07-18T01:57:05;101183.47;;;16.18;57.67
70468;BME280;57934;51.532;7.684;2022-07-18T01:59:32;101176.13;;;16.13;58.08
70468;BME280;57934;51.532;7.684;2022-07-18T02:01:58;101178.19;;;16.11;58.45
70468;BME280;57934;51.532;7.684;2022-07-18T02:04:24;101170.63;;;16.08;58.26
70468;BME280;57934;51.532;7.684;2022-07-18T02:07:10;101170.63;;;16.02;57.93
70468;BME280;57934;51.532;7.684;2022-07-18T02:09:36;101166.75;;;15.97;57.89
70468;BME280;57934;51.532;7.684;2022-07-18T02:12:03;101164.91;;;15.91;58.36
70468;BME280;57934;51.532;7.684;2022-07-18T02:14:29;101167.78;;;15.83;58.73
70468;BME280;57934;51.532;7.684;2022-07-18T02:16:55;101159.41;;;15.80;58.56
70468;BME280;57934;51.532;7.684;2022-07-18T02:19:21;101165.31;;;15.75;58.95
70468;BME280;57934;51.532;7.684;2022-07-18T02:21:47;101161.66;;;15.69;59.10
70468;BME280;57934;51.532;7.684;2022-07-18T02:24:13;101157.34;;;15.68;59.31
70468;BME280;57934;51.532;7.684;2022-07-18T02:26:39;101156.34;;;15.69;58.94
70468;BME280;57934;51.532;7.684;2022-07-18T02:29:04;101151.03;;;15.69;58.20
70468;BME280;57934;51.532;7.684;2022-07-18T02:31:30;101145.06;;;15.67;59.21
70468;BME280;57934;51.532;7.684;2022-07-18T02:33:56;101143.81;;;15.57;59.88
70468;BME280;57934;51.532;7.684;2022-07-18T02:36:22;101141.97;;;15.50;59.99
70468;BME280;57934;51.532;7.684;2022-07-18T02:38:48;101144.22;;;15.47;60.23
70468;BME280;57934;51.532;7.684;2022-07-18T02:41:14;101143.41;;;15.46;59.92
70468;BME280;57934;51.532;7.684;2022-07-18T02:43:40;101140.56;;;15.48;59.78
70468;BME280;57934;51.532;7.684;2022-07-18T02:46:06;101143.81;;;15.50;59.90
70468;BME280;57934;51.532;7.684;2022-07-18T02:48:32;101150.75;;;15.51;59.91
70468;BME280;57934;51.532;7.684;2022-07-18T02:50:58;101152.41;;;15.52;59.75
70468;BME280;57934;51.532;7.684;2022-07-18T02:53:24;101146.28;;;15.51;59.85
70468;BME280;57934;51.532;7.684;2022-07-18T02:55:50;101152.41;;;15.52;59.54
70468;BME280;57934;51.532;7.684;2022-07-18T02:58:17;101146.47;;;15.50;59.77
70468;BME280;57934;51.532;7.684;2022-07-18T03:00:43;101141.16;;;15.50;59.72
70468;BME280;57934;51.532;7.684;2022-07-18T03:03:09;101147.91;;;15.52;59.64
70468;BME280;57934;51.532;7.684;2022-07-18T03:05:35;101140.13;;;15.51;59.84
70468;BME280;57934;51.532;7.684;2022-07-18T03:08:01;101141.78;;;15.52;59.40
70468;BME280;57934;51.532;7.684;2022-07-18T03:10:27;101142.38;;;15.47;59.86
70468;BME280;57934;51.532;7.684;2022-07-18T03:12:53;101137.88;;;15.28;60.49
70468;BME280;57934;51.532;7.684;2022-07-18T03:15:20;101141.53;;;15.14;61.05
70468;BME280;57934;51.532;7.684;2022-07-18T03:17:46;101135.81;;;15.03;61.44
70468;BME280;57934;51.532;7.684;2022-07-18T03:20:12;101137.84;;;15.01;61.53
70468;BME280;57934;51.532;7.684;2022-07-18T03:22:38;101142.34;;;15.01;61.65
70468;BME280;57934;51.532;7.684;2022-07-18T03:25:04;101138.25;;;14.92;61.96
70468;BME280;57934;51.532;7.684;2022-07-18T03:27:30;101137.81;;;14.88;61.88
70468;BME280;57934;51.532;7.684;2022-07-18T03:29:56;101134.31;;;14.81;61.66
70468;BME280;57934;51.532;7.684;2022-07-18T03:32:22;101138.63;;;14.82;61.58
70468;BME280;57934;51.532;7.684;2022-07-18T03:34:48;101137.81;;;14.95;61.66
70468;BME280;57934;51.532;7.684;2022-07-18T03:37:14;101142.97;;;15.03;61.69
70468;BME280;57934;51.532;7.684;2022-07-18T03:39:40;101137.44;;;15.11;61.65
70468;BME280;57934;51.532;7.684;2022-07-18T03:42:06;101136.66;;;15.17;61.71
70468;BME280;57934;51.532;7.684;2022-07-18T03:44:32;101126.63;;;15.19;61.68
70468;BME280;57934;51.532;7.684;2022-07-18T03:46:58;101137.25;;;15.26;61.45
70468;BME280;57934;51.532;7.684;2022-07-18T03:49:24;101127.03;;;15.30;61.52
70468;BME280;57934;51.532;7.684;2022-07-18T03:51:50;101134.81;;;15.31;61.45
70468;BME280;57934;51.532;7.684;2022-07-18T03:54:16;101129.09;;;15.34;61.86
70468;BME280;57934;51.532;7.684;2022-07-18T03:56:42;101137.28;;;15.39;61.80
70468;BME280;57934;51.532;7.684;2022-07-18T03:59:08;101132.59;;;15.41;61.93
70468;BME280;57934;51.532;7.684;2022-07-18T04:01:34;101138.50;;;15.43;61.91
70468;BME280;57934;51.532;7.684;2022-07-18T04:04:00;101139.13;;;15.45;62.16
70468;BME280;57934;51.532;7.684;2022-07-18T04:06:26;101140.13;;;15.51;61.67
70468;BME280;57934;51.532;7.684;2022-07-18T04:08:52;101133.59;;;15.54;61.71
70468;BME280;57934;51.532;7.684;2022-07-18T04:11:19;101138.09;;;15.53;61.93
70468;BME280;57934;51.532;7.684;2022-07-18T04:13:51;101137.28;;;15.52;62.07
70468;BME280;57934;51.532;7.684;2022-07-18T04:16:17;101138.09;;;15.53;62.19
70468;BME280;57934;51.532;7.684;2022-07-18T04:18:43;101145.25;;;15.59;62.78
70468;BME280;57934;51.532;7.684;2022-07-18T04:21:09;101143.59;;;15.58;62.24
70468;BME280;57934;51.532;7.684;2022-07-18T04:23:35;101144.63;;;15.64;62.41
70468;BME280;57934;51.532;7.684;2022-07-18T04:26:01;101141.97;;;15.64;62.33
70468;BME280;57934;51.532;7.684;2022-07-18T04:28:29;101147.72;;;15.67;62.43
70468;BME280;57934;51.532;7.684;2022-07-18T04:30:56;101150.41;;;15.74;62.31
70468;BME280;57934;51.532;7.684;2022-07-18T04:33:22;101140.97;;;15.78;62.08
70468;BME280;57934;51.532;7.684;2022-07-18T04:35:48;101138.94;;;15.80;62.22
70468;BME280;57934;51.532;7.684;2022-07-18T04:38:15;101132.59;;;15.81;62.21
70468;BME280;57934;51.532;7.684;2022-07-18T04:40:41;101129.53;;;15.84;62.34
70468;BME280;57934;51.532;7.684;2022-07-18T04:43:07;101122.53;;;15.90;62.80
70468;BME280;57934;51.532;7.684;2022-07-18T04:45:34;101132.75;;;15.99;62.63
70468;BME280;57934;51.532;7.684;2022-07-18T04:48:04;101136.84;;;16.09;62.42
70468;BME280;57934;51.532;7.684;2022-07-18T04:50:30;101143.16;;;16.14;62.10
70468;BME280;57934;51.532;7.684;2022-07-18T04:52:57;101137.41;;;16.24;61.74
70468;BME280;57934;51.532;7.684;2022-07-18T04:55:24;101132.84;;;16.38;61.88
70468;BME280;57934;51.532;7.684;2022-07-18T04:57:51;101126.03;;;16.55;61.74
70468;BME280;57934;51.532;7.684;2022-07-18T05:00:22;101135.81;;;16.68;61.19
70468;BME280;57934;51.532;7.684;2022-07-18T05:02:51;101144.38;;;16.77;60.92
70468;BME280;57934;51.532;7.684;2022-07-18T05:05:19;101144.38;;;16.77;60.49
70468;BME280;57934;51.532;7.684;2022-07-18T05:07:46;101139.44;;;16.80;59.33
70468;BME280;57934;51.532;7.684;2022-07-18T05:10:14;101139.03;;;16.83;59.45
70468;BME280;57934;51.532;7.684;2022-07-18T05:12:43;101131.44;;;16.87;60.86
70468;BME280;57934;51.532;7.684;2022-07-18T05:15:11;101136.97;;;16.85;60.65
70468;BME280;57934;51.532;7.684;2022-07-18T05:17:38;101143.94;;;16.86;60.97
70468;BME280;57934;51.532;7.684;2022-07-18T05:20:06;101133.91;;;16.88;60.20
70468;BME280;57934;51.532;7.684;2022-07-18T05:22:33;101128.69;;;17.00;59.67
70468;BME280;57934;51.532;7.684;2022-07-18T05:25:00;101133.94;;;17.13;59.20
70468;BME280;57934;51.532;7.684;2022-07-18T05:27:26;101128.94;;;17.24;56.68
70468;BME280;57934;51.532;7.684;2022-07-18T05:29:52;101132.09;;;17.39;56.22
70468;BME280;57934;51.532;7.684;2022-07-18T05:32:18;101136.72;;;17.50;56.85
70468;BME280;57934;51.532;7.684;2022-07-18T05:34:44;101135.84;;;17.56;57.15
70468;BME280;57934;51.532;7.684;2022-07-18T05:37:10;101134.75;;;17.64;56.37
70468;BME280;57934;51.532;7.684;2022-07-18T05:39:36;101131.81;;;17.72;55.38
70468;BME280;57934;51.532;7.684;2022-07-18T05:42:03;101123.50;;;17.87;55.27
70468;BME280;57934;51.532;7.684;2022-07-18T05:44:29;101130.53;;;18.00;54.68
70468;BME280;57934;51.532;7.684;2022-07-18T05:46:55;101127.13;;;18.11;54.33
70468;BME280;57934;51.532;7.684;2022-07-18T05:49:21;101120.84;;;18.24;54.14
70468;BME280;57934;51.532;7.684;2022-07-18T05:51:47;101126.25;;;18.35;53.76
70468;BME280;57934;51.532;7.684;2022-07-18T05:54:13;101118.22;;;18.54;53.11
70468;BME280;57934;51.532;7.684;2022-07-18T05:56:49;101113.59;;;18.79;52.49
70468;BME280;57934;51.532;7.684;2022-07-18T05:59:16;101108.78;;;19.00;51.98
70468;BME280;57934;51.532;7.684;2022-07-18T06:01:42;101096.13;;;19.19;51.25
70468;BME280;57934;51.532;7.684;2022-07-18T06:04:09;101100.00;;;19.35;50.15
70468;BME280;57934;51.532;7.684;2022-07-18T06:06:36;101098.84;;;19.42;50.39
70468;BME280;57934;51.532;7.684;2022-07-18T06:09:02;101098.72;;;19.49;48.69
70468;BME280;57934;51.532;7.684;2022-07-18T06:11:29;101092.09;;;19.51;48.14
70468;BME280;57934;51.532;7.684;2022-07-18T06:13:55;101096.31;;;19.59;47.15
70468;BME280;57934;51.532;7.684;2022-07-18T06:16:21;101091.78;;;19.71;46.62
70468;BME280;57934;51.532;7.684;2022-07-18T06:18:47;101085.59;;;19.83;47.07
70468;BME280;57934;51.532;7.684;2022-07-18T06:21:13;101094.91;;;19.92;45.68
70468;BME280;57934;51.532;7.684;2022-07-18T06:23:39;101090.81;;;20.01;45.10
70468;BME280;57934;51.532;7.684;2022-07-18T06:26:06;101103.25;;;20.07;45.16
70468;BME280;57934;51.532;7.684;2022-07-18T06:28:32;101093.00;;;20.16;44.85
70468;BME280;57934;51.532;7.684;2022-07-18T06:30:58;101094.22;;;20.25;44.19
70468;BME280;57934;51.532;7.684;2022-07-18T06:33:24;101092.00;;;20.34;43.61
70468;BME280;57934;51.532;7.684;2022-07-18T06:35:50;101096.03;;;20.48;42.97
70468;BME280;57934;51.532;7.684;2022-07-18T06:38:16;101087.75;;;20.61;42.80
70468;BME280;57934;51.532;7.684;2022-07-18T06:40:43;101093.84;;;20.73;43.51
70468;BME280;57934;51.532;7.684;2022-07-18T06:43:09;101079.41;;;20.91;43.05
70468;BME280;57934;51.532;7.684;2022-07-18T06:45:36;101084.63;;;21.15;41.88
70468;BME280;57934;51.532;7.684;2022-07-18T06:48:02;101078.41;;;21.43;41.60
70468;BME280;57934;51.532;7.684;2022-07-18T06:50:28;101087.44;;;21.76;41.91
70468;BME280;57934;51.532;7.684;2022-07-18T06:52:54;101095.09;;;22.06;39.91
70468;BME280;57934;51.532;7.684;2022-07-18T06:55:20;101097.63;;;22.34;39.37
70468;BME280;57934;51.532;7.684;2022-07-18T06:57:46;101091.53;;;22.44;39.91
70468;BME280;57934;51.532;7.684;2022-07-18T07:00:14;101094.22;;;22.44;39.38
70468;BME280;57934;51.532;7.684;2022-07-18T07:02:46;101089.00;;;22.59;38.80
70468;BME280;57934;51.532;7.684;2022-07-18T07:05:14;101083.03;;;22.79;38.40
70468;BME280;57934;51.532;7.684;2022-07-18T07:07:40;101088.13;;;22.81;38.97
70468;BME280;57934;51.532;7.684;2022-07-18T07:10:07;101089.91;;;22.70;38.28
70468;BME280;57934;51.532;7.684;2022-07-18T07:12:47;101092.41;;;22.77;38.53
70468;BME280;57934;51.532;7.684;2022-07-18T07:15:15;101092.00;;;22.90;39.14
70468;BME280;57934;51.532;7.684;2022-07-18T07:17:43;101091.25;;;22.95;39.87
70468;BME280;57934;51.532;7.684;2022-07-18T07:20:09;101089.53;;;23.10;39.97
70468;BME280;57934;51.532;7.684;2022-07-18T07:22:53;101096.03;;;23.20;38.88
70468;BME280;57934;51.532;7.684;2022-07-18T07:25:21;101094.56;;;23.39;38.88
70468;BME280;57934;51.532;7.684;2022-07-18T07:27:47;101089.56;;;23.58;37.36
70468;BME280;57934;51.532;7.684;2022-07-18T07:30:15;101089.41;;;23.70;36.10
70468;BME280;57934;51.532;7.684;2022-07-18T07:32:42;101082.25;;;23.91;35.88
70468;BME280;57934;51.532;7.684;2022-07-18T07:35:10;101088.56;;;24.22;35.05
70468;BME280;57934;51.532;7.684;2022-07-18T07:37:43;101084.31;;;24.36;35.05
70468;BME280;57934;51.532;7.684;2022-07-18T07:40:10;101081.13;;;24.60;34.87
70468;BME280;57934;51.532;7.684;2022-07-18T07:42:36;101073.63;;;24.82;33.41
70468;BME280;57934;51.532;7.684;2022-07-18T07:45:04;101068.75;;;25.05;32.84
70468;BME280;57934;51.532;7.684;2022-07-18T07:47:30;101074.69;;;25.37;32.20
70468;BME280;57934;51.532;7.684;2022-07-18T07:49:56;101065.44;;;25.79;31.69
70468;BME280;57934;51.532;7.684;2022-07-18T07:52:23;101060.84;;;26.34;31.29
70468;BME280;57934;51.532;7.684;2022-07-18T07:54:54;101058.78;;;27.00;30.60
70468;BME280;57934;51.532;7.684;2022-07-18T07:57:20;101058.81;;;27.29;30.90
70468;BME280;57934;51.532;7.684;2022-07-18T07:59:46;101047.47;;;27.51;30.03
70468;BME280;57934;51.532;7.684;2022-07-18T08:02:12;101050.31;;;28.07;29.13
70468;BME280;57934;51.532;7.684;2022-07-18T08:04:39;101055.00;;;28.77;27.61
70468;BME280;57934;51.532;7.684;2022-07-18T08:07:04;101050.25;;;29.76;27.04
70468;BME280;57934;51.532;7.684;2022-07-18T08:09:31;101050.50;;;30.75;25.78
70468;BME280;57934;51.532;7.684;2022-07-18T08:11:57;101057.97;;;31.85;24.23
70468;BME280;57934;51.532;7.684;2022-07-18T08:14:23;101049.34;;;32.78;23.19
70468;BME280;57934;51.532;7.684;2022-07-18T08:16:48;101055.03;;;33.88;22.85
70468;BME280;57934;51.532;7.684;2022-07-18T08:19:14;101055.13;;;34.97;20.13
70468;BME280;57934;51.532;7.684;2022-07-18T08:21:41;101052.09;;;35.35;20.11
70468;BME280;57934;51.532;7.684;2022-07-18T08:24:07;101053.22;;;36.48;19.53
70468;BME280;57934;51.532;7.684;2022-07-18T08:26:33;101051.50;;;36.87;19.29
70468;BME280;57934;51.532;7.684;2022-07-18T08:29:02;101050.16;;;35.84;19.13
70468;BME280;57934;51.532;7.684;2022-07-18T08:31:28;101051.09;;;34.94;19.42
70468;BME280;57934;51.532;7.684;2022-07-18T08:33:54;101049.00;;;35.73;19.69
70468;BME280;57934;51.532;7.684;2022-07-18T08:36:20;101048.28;;;36.41;17.82
70468;BME280;57934;51.532;7.684;2022-07-18T08:38:46;101048.34;;;37.48;16.74
70468;BME280;57934;51.532;7.684;2022-07-18T08:41:13;101042.28;;;38.33;16.41
70468;BME280;57934;51.532;7.684;2022-07-18T08:43:39;101038.66;;;38.29;15.97
70468;BME280;57934;51.532;7.684;2022-07-18T08:46:06;101034.78;;;38.49;15.83
70468;BME280;57934;51.532;7.684;2022-07-18T08:48:32;101029.47;;;38.21;15.59
70468;BME280;57934;51.532;7.684;2022-07-18T08:51:00;101028.31;;;38.03;15.02
70468;BME280;57934;51.532;7.684;2022-07-18T08:53:26;101028.78;;;37.89;14.68
70468;BME280;57934;51.532;7.684;2022-07-18T08:55:53;101030.56;;;37.97;14.77
70468;BME280;57934;51.532;7.684;2022-07-18T08:58:19;101020.31;;;37.97;14.17
70468;BME280;57934;51.532;7.684;2022-07-18T09:00:46;101025.19;;;38.43;14.40
70468;BME280;57934;51.532;7.684;2022-07-18T09:03:12;101030.16;;;38.99;14.46
70468;BME280;57934;51.532;7.684;2022-07-18T09:05:39;101026.44;;;39.37;14.55
70468;BME280;57934;51.532;7.684;2022-07-18T09:08:12;101028.25;;;39.03;14.68
70468;BME280;57934;51.532;7.684;2022-07-18T09:10:52;101026.81;;;38.86;14.84
70468;BME280;57934;51.532;7.684;2022-07-18T09:13:35;101027.69;;;39.17;14.34
70468;BME280;57934;51.532;7.684;2022-07-18T09:16:12;101027.25;;;39.65;14.03
70468;BME280;57934;51.532;7.684;2022-07-18T09:18:43;101027.09;;;39.54;14.63
70468;BME280;57934;51.532;7.684;2022-07-18T09:21:12;101023.72;;;38.69;15.28
70468;BME280;57934;51.532;7.684;2022-07-18T09:23:41;101021.56;;;39.27;14.53
70468;BME280;57934;51.532;7.684;2022-07-18T09:26:09;101025.13;;;39.05;14.52
70468;BME280;57934;51.532;7.684;2022-07-18T09:29:04;101016.53;;;39.33;14.98
70468;BME280;57934;51.532;7.684;2022-07-18T09:31:31;101011.88;;;39.67;14.01
70468;BME280;57934;51.532;7.684;2022-07-18T09:33:59;101014.16;;;39.88;14.23
70468;BME280;57934;51.532;7.684;2022-07-18T09:36:26;101015.91;;;40.34;13.77
70468;BME280;57934;51.532;7.684;2022-07-18T09:38:53;101016.72;;;40.75;13.48
70468;BME280;57934;51.532;7.684;2022-07-18T09:41:28;101016.25;;;41.14;13.57
70468;BME280;57934;51.532;7.684;2022-07-18T09:43:58;101022.38;;;41.41;13.62
70468;BME280;57934;51.532;7.684;2022-07-18T09:46:24;101021.03;;;41.17;13.75
70468;BME280;57934;51.532;7.684;2022-07-18T09:49:10;101004.81;;;40.71;13.72
70468;BME280;57934;51.532;7.684;2022-07-18T09:51:36;101004.41;;;39.68;13.83
70468;BME280;57934;51.532;7.684;2022-07-18T09:54:02;100996.75;;;39.57;14.29
70468;BME280;57934;51.532;7.684;2022-07-18T09:56:30;100999.53;;;40.18;14.82
70468;BME280;57934;51.532;7.684;2022-07-18T09:58:56;101001.16;;;39.89;14.46
70468;BME280;57934;51.532;7.684;2022-07-18T10:01:23;101001.34;;;39.46;13.99
70468;BME280;57934;51.532;7.684;2022-07-18T10:03:49;101000.31;;;39.58;13.87
70468;BME280;57934;51.532;7.684;2022-07-18T10:06:16;100997.47;;;39.77;14.00
70468;BME280;57934;51.532;7.684;2022-07-18T10:08:44;100993.84;;;40.82;13.42
70468;BME280;57934;51.532;7.684;2022-07-18T10:11:10;100998.41;;;40.26;13.62
70468;BME280;57934;51.532;7.684;2022-07-18T10:13:37;100989.28;;;40.22;13.56
70468;BME280;57934;51.532;7.684;2022-07-18T10:16:04;100988.38;;;40.11;13.31
70468;BME280;57934;51.532;7.684;2022-07-18T10:18:32;100991.91;;;40.45;13.38
70468;BME280;57934;51.532;7.684;2022-07-18T10:23:34;100987.81;;;40.31;12.63
70468;BME280;57934;51.532;7.684;2022-07-18T10:33:53;100971.38;;;40.46;13.15
70468;BME280;57934;51.532;7.684;2022-07-18T10:36:23;100984.69;;;41.22;12.15
70468;BME280;57934;51.532;7.684;2022-07-18T10:41:28;100976.09;;;40.83;12.70
70468;BME280;57934;51.532;7.684;2022-07-18T10:43:54;100983.72;;;41.00;12.65
70468;BME280;57934;51.532;7.684;2022-07-18T10:46:20;100971.56;;;39.93;12.72
70468;BME280;57934;51.532;7.684;2022-07-18T10:48:48;100966.19;;;40.41;13.17
70468;BME280;57934;51.532;7.684;2022-07-18T10:51:15;100964.88;;;40.68;12.03
70468;BME280;57934;51.532;7.684;2022-07-18T10:56:20;100966.38;;;40.21;13.08
70468;BME280;57934;51.532;7.684;2022-07-18T10:58:46;100971.28;;;40.35;12.83
70468;BME280;57934;51.532;7.684;2022-07-18T11:01:23;100964.06;;;40.64;12.67
70468;BME280;57934;51.532;7.684;2022-07-18T11:03:49;100973.06;;;40.17;13.54
70468;BME280;57934;51.532;7.684;2022-07-18T11:06:16;100976.72;;;40.28;12.91
70468;BME280;57934;51.532;7.684;2022-07-18T11:08:42;100970.56;;;39.74;12.99
70468;BME280;57934;51.532;7.684;2022-07-18T11:11:09;100970.03;;;39.95;13.21
70468;BME280;57934;51.532;7.684;2022-07-18T11:13:41;100972.75;;;40.25;13.30
70468;BME280;57934;51.532;7.684;2022-07-18T11:16:15;100962.88;;;40.62;12.48
70468;BME280;57934;51.532;7.684;2022-07-18T11:21:33;100951.81;;;40.65;13.29
70468;BME280;57934;51.532;7.684;2022-07-18T11:24:04;100958.75;;;39.74;13.59
70468;BME280;57934;51.532;7.684;2022-07-18T11:26:33;100946.78;;;40.00;13.18
70468;BME280;57934;51.532;7.684;2022-07-18T11:29:08;100944.22;;;39.84;13.06
70468;BME280;57934;51.532;7.684;2022-07-18T11:31:45;100946.56;;;40.16;13.26
70468;BME280;57934;51.532;7.684;2022-07-18T11:34:11;100932.97;;;40.00;13.23
70468;BME280;57934;51.532;7.684;2022-07-18T11:36:39;100935.16;;;40.17;13.17
70468;BME280;57934;51.532;7.684;2022-07-18T11:39:06;100931.09;;;40.48;12.75
70468;BME280;57934;51.532;7.684;2022-07-18T11:41:32;100929.72;;;40.69;12.94
70468;BME280;57934;51.532;7.684;2022-07-18T11:43:58;100926.25;;;40.35;12.76
70468;BME280;57934;51.532;7.684;2022-07-18T11:46:26;100933.72;;;40.30;12.81
70468;BME280;57934;51.532;7.684;2022-07-18T11:49:04;100926.97;;;40.69;12.92
70468;BME280;57934;51.532;7.684;2022-07-18T11:51:35;100923.13;;;40.40;12.96
70468;BME280;57934;51.532;7.684;2022-07-18T11:54:02;100913.16;;;40.72;12.91
70468;BME280;57934;51.532;7.684;2022-07-18T11:56:28;100910.09;;;40.92;12.65
70468;BME280;57934;51.532;7.684;2022-07-18T11:58:54;100908.28;;;41.14;12.66
70468;BME280;57934;51.532;7.684;2022-07-18T12:01:22;100905.03;;;40.49;12.75
70468;BME280;57934;51.532;7.684;2022-07-18T12:03:49;100906.44;;;39.01;13.45
70468;BME280;57934;51.532;7.684;2022-07-18T12:06:21;100899.38;;;36.99;14.73
70468;BME280;57934;51.532;7.684;2022-07-18T12:08:49;100908.97;;;35.85;16.49
70468;BME280;57934;51.532;7.684;2022-07-18T12:11:33;100906.13;;;35.17;17.30
70468;BME280;57934;51.532;7.684;2022-07-18T12:14:02;100896.31;;;34.67;17.51
70468;BME280;57934;51.532;7.684;2022-07-18T12:18:59;100903.00;;;34.12;18.31
70468;BME280;57934;51.532;7.684;2022-07-18T12:21:46;100888.75;;;33.85;19.12
70468;BME280;57934;51.532;7.684;2022-07-18T12:24:23;100894.38;;;33.68;18.85
70468;BME280;57934;51.532;7.684;2022-07-18T12:32:42;100882.69;;;33.08;19.42
70468;BME280;57934;51.532;7.684;2022-07-18T12:35:21;100884.84;;;32.94;19.58
70468;BME280;57934;51.532;7.684;2022-07-18T12:38:02;100883.22;;;33.01;19.94
70468;BME280;57934;51.532;7.684;2022-07-18T12:43:35;100881.47;;;32.97;19.28
70468;BME280;57934;51.532;7.684;2022-07-18T12:46:07;100877.63;;;32.89;19.61
70468;BME280;57934;51.532;7.684;2022-07-18T12:48:34;100878.25;;;32.57;20.04
70468;BME280;57934;51.532;7.684;2022-07-18T12:51:05;100872.44;;;32.67;19.70
70468;BME280;57934;51.532;7.684;2022-07-18T12:53:33;100872.25;;;32.72;20.07
70468;BME280;57934;51.532;7.684;2022-07-18T12:56:00;100872.72;;;32.74;20.41
70468;BME280;57934;51.532;7.684;2022-07-18T12:58:26;100868.19;;;32.78;20.16
70468;BME280;57934;51.532;7.684;2022-07-18T13:00:52;100866.72;;;32.89;20.03
70468;BME280;57934;51.532;7.684;2022-07-18T13:03:21;100862.28;;;33.06;20.10
70468;BME280;57934;51.532;7.684;2022-07-18T13:05:47;100865.25;;;33.21;20.52
70468;BME280;57934;51.532;7.684;2022-07-18T13:08:14;100852.13;;;33.36;19.90
70468;BME280;57934;51.532;7.684;2022-07-18T13:10:41;100854.50;;;33.37;19.48
70468;BME280;57934;51.532;7.684;2022-07-18T13:13:08;100849.13;;;33.29;19.69
70468;BME280;57934;51.532;7.684;2022-07-18T13:15:35;100849.09;;;33.08;19.70
70468;BME280;57934;51.532;7.684;2022-07-18T13:18:03;100847.38;;;32.94;20.08
70468;BME280;57934;51.532;7.684;2022-07-18T13:20:29;100853.97;;;32.93;20.03
70468;BME280;57934;51.532;7.684;2022-07-18T13:22:57;100846.75;;;32.97;19.97